sensor_id;sensor_type;location;lat;lon;timestamp;temperature;humidity
10057;DHT22;5068;51.286;7.518;2022-07-23T00:00:21;16.60;67.60
10057;DHT22;5068;51.286;7.518;2022-07-23T00:01:55;16.60;67.60
10057;DHT22;5068;51.286;7.518;2022-07-23T00:03:29;16.70;67.80
10057;DHT22;5068;51.286;7.518;2022-07-23T00:05:03;16.60;67.70
10057;DHT22;5068;51.286;7.518;2022-07-23T00:06:37;16.60;67.70
10057;DHT22;5068;51.286;7.518;2022-07-23T00:08:10;16.60;67.60
10057;DHT22;5068;51.286;7.518;2022-07-23T00:09:45;16.60;67.50
10057;DHT22;5068;51.286;7.518;2022-07-23T00:11:19;16.60;67.40
10057;DHT22;5068;51.286;7.518;2022-07-23T00:12:55;16.60;67.40
10057;DHT22;5068;51.286;7.518;2022-07-23T00:14:28;16.60;67.80
10057;DHT22;5068;51.286;7.518;2022-07-23T00:16:02;16.60;67.90
10057;DHT22;5068;51.286;7.518;2022-07-23T00:17:36;16.50;67.90
10057;DHT22;5068;51.286;7.518;2022-07-23T00:19:10;16.50;68.00
10057;DHT22;5068;51.286;7.518;2022-07-23T00:20:44;16.50;68.20
10057;DHT22;5068;51.286;7.518;2022-07-23T00:22:17;16.50;68.50
10057;DHT22;5068;51.286;7.518;2022-07-23T00:23:51;16.50;68.50
10057;DHT22;5068;51.286;7.518;2022-07-23T00:25:26;16.40;68.50
10057;DHT22;5068;51.286;7.518;2022-07-23T00:27:02;16.40;68.40
10057;DHT22;5068;51.286;7.518;2022-07-23T00:28:37;16.40;68.60
10057;DHT22;5068;51.286;7.518;2022-07-23T00:30:12;16.40;69.00
10057;DHT22;5068;51.286;7.518;2022-07-23T00:31:48;16.40;69.30
10057;DHT22;5068;51.286;7.518;2022-07-23T00:33:22;16.40;69.20
10057;DHT22;5068;51.286;7.518;2022-07-23T00:34:55;16.40;69.20
10057;DHT22;5068;51.286;7.518;2022-07-23T00:36:29;16.30;69.20
10057;DHT22;5068;51.286;7.518;2022-07-23T00:38:04;16.30;69.40
10057;DHT22;5068;51.286;7.518;2022-07-23T00:39:38;16.30;69.50
10057;DHT22;5068;51.286;7.518;2022-07-23T00:41:11;16.30;69.50
10057;DHT22;5068;51.286;7.518;2022-07-23T00:42:45;16.30;69.50
10057;DHT22;5068;51.286;7.518;2022-07-23T00:44:22;16.30;69.50
10057;DHT22;5068;51.286;7.518;2022-07-23T00:45:56;16.30;69.50
10057;DHT22;5068;51.286;7.518;2022-07-23T00:47:31;16.30;69.40
10057;DHT22;5068;51.286;7.518;2022-07-23T00:49:04;16.30;69.40
10057;DHT22;5068;51.286;7.518;2022-07-23T00:50:37;16.30;69.50
10057;DHT22;5068;51.286;7.518;2022-07-23T00:52:10;16.30;69.50
10057;DHT22;5068;51.286;7.518;2022-07-23T00:53:44;16.30;69.50
10057;DHT22;5068;51.286;7.518;2022-07-23T00:55:19;16.30;69.50
10057;DHT22;5068;51.286;7.518;2022-07-23T00:56:51;16.30;69.50
10057;DHT22;5068;51.286;7.518;2022-07-23T00:58:25;16.30;69.50
10057;DHT22;5068;51.286;7.518;2022-07-23T01:00:00;16.30;69.50
10057;DHT22;5068;51.286;7.518;2022-07-23T01:01:35;16.30;69.50
10057;DHT22;5068;51.286;7.518;2022-07-23T01:03:09;16.30;69.50
10057;DHT22;5068;51.286;7.518;2022-07-23T01:04:43;16.30;70.30
10057;DHT22;5068;51.286;7.518;2022-07-23T01:06:17;16.30;69.50
10057;DHT22;5068;51.286;7.518;2022-07-23T01:07:51;16.30;69.80
10057;DHT22;5068;51.286;7.518;2022-07-23T01:09:27;16.30;69.80
10057;DHT22;5068;51.286;7.518;2022-07-23T01:11:02;16.30;69.50
10057;DHT22;5068;51.286;7.518;2022-07-23T01:12:36;16.30;69.50
10057;DHT22;5068;51.286;7.518;2022-07-23T01:14:12;16.30;69.50
10057;DHT22;5068;51.286;7.518;2022-07-23T01:15:48;16.30;69.50
10057;DHT22;5068;51.286;7.518;2022-07-23T01:17:22;16.30;69.50
10057;DHT22;5068;51.286;7.518;2022-07-23T01:18:56;16.30;69.50
10057;DHT22;5068;51.286;7.518;2022-07-23T01:20:31;16.30;69.90
10057;DHT22;5068;51.286;7.518;2022-07-23T01:22:08;16.30;69.90
10057;DHT22;5068;51.286;7.518;2022-07-23T01:23:44;16.30;69.50
10057;DHT22;5068;51.286;7.518;2022-07-23T01:25:18;16.30;69.50
10057;DHT22;5068;51.286;7.518;2022-07-23T01:26:59;16.30;69.50
10057;DHT22;5068;51.286;7.518;2022-07-23T01:28:32;16.20;69.40
10057;DHT22;5068;51.286;7.518;2022-07-23T01:30:06;16.20;69.40
10057;DHT22;5068;51.286;7.518;2022-07-23T01:31:40;16.20;69.40
10057;DHT22;5068;51.286;7.518;2022-07-23T01:33:14;16.20;69.40
10057;DHT22;5068;51.286;7.518;2022-07-23T01:34:48;16.20;69.40
10057;DHT22;5068;51.286;7.518;2022-07-23T01:36:22;16.20;69.50
10057;DHT22;5068;51.286;7.518;2022-07-23T01:37:55;16.20;69.50
10057;DHT22;5068;51.286;7.518;2022-07-23T01:39:30;16.20;70.20
10057;DHT22;5068;51.286;7.518;2022-07-23T01:41:04;16.20;69.40
10057;DHT22;5068;51.286;7.518;2022-07-23T01:42:38;16.20;69.40
10057;DHT22;5068;51.286;7.518;2022-07-23T01:44:15;16.20;69.50
10057;DHT22;5068;51.286;7.518;2022-07-23T01:45:50;16.20;69.40
10057;DHT22;5068;51.286;7.518;2022-07-23T01:47:25;16.20;69.40
10057;DHT22;5068;51.286;7.518;2022-07-23T01:49:00;16.20;69.50
10057;DHT22;5068;51.286;7.518;2022-07-23T01:50:54;16.20;69.40
10057;DHT22;5068;51.286;7.518;2022-07-23T01:52:41;16.20;69.40
10057;DHT22;5068;51.286;7.518;2022-07-23T01:54:14;16.20;69.50
10057;DHT22;5068;51.286;7.518;2022-07-23T01:55:49;16.10;69.40
10057;DHT22;5068;51.286;7.518;2022-07-23T01:57:23;16.20;69.70
10057;DHT22;5068;51.286;7.518;2022-07-23T01:58:56;16.20;69.40
10057;DHT22;5068;51.286;7.518;2022-07-23T02:00:31;16.20;69.40
10057;DHT22;5068;51.286;7.518;2022-07-23T02:02:04;16.20;69.50
10057;DHT22;5068;51.286;7.518;2022-07-23T02:03:38;16.20;69.40
10057;DHT22;5068;51.286;7.518;2022-07-23T02:05:11;16.20;69.40
10057;DHT22;5068;51.286;7.518;2022-07-23T02:06:45;16.20;69.40
10057;DHT22;5068;51.286;7.518;2022-07-23T02:08:17;16.20;69.40
10057;DHT22;5068;51.286;7.518;2022-07-23T02:09:51;16.20;69.40
10057;DHT22;5068;51.286;7.518;2022-07-23T02:11:26;16.20;69.40
10057;DHT22;5068;51.286;7.518;2022-07-23T02:13:00;16.20;69.40
10057;DHT22;5068;51.286;7.518;2022-07-23T02:14:34;16.20;69.40
10057;DHT22;5068;51.286;7.518;2022-07-23T02:16:10;16.20;69.40
10057;DHT22;5068;51.286;7.518;2022-07-23T02:17:43;16.10;69.30
10057;DHT22;5068;51.286;7.518;2022-07-23T02:19:16;16.10;69.30
10057;DHT22;5068;51.286;7.518;2022-07-23T02:20:50;16.10;69.30
10057;DHT22;5068;51.286;7.518;2022-07-23T02:22:25;16.10;69.30
10057;DHT22;5068;51.286;7.518;2022-07-23T02:23:58;16.10;69.30
10057;DHT22;5068;51.286;7.518;2022-07-23T02:25:32;16.10;70.10
10057;DHT22;5068;51.286;7.518;2022-07-23T02:27:08;16.10;69.30
10057;DHT22;5068;51.286;7.518;2022-07-23T02:28:41;16.10;69.30
10057;DHT22;5068;51.286;7.518;2022-07-23T02:30:16;16.10;69.30
10057;DHT22;5068;51.286;7.518;2022-07-23T02:31:50;16.10;70.10
10057;DHT22;5068;51.286;7.518;2022-07-23T02:33:24;16.10;69.40
10057;DHT22;5068;51.286;7.518;2022-07-23T02:34:58;16.10;69.30
10057;DHT22;5068;51.286;7.518;2022-07-23T02:36:32;16.10;69.30
10057;DHT22;5068;51.286;7.518;2022-07-23T02:38:08;16.10;69.30
10057;DHT22;5068;51.286;7.518;2022-07-23T02:39:41;16.00;69.30
10057;DHT22;5068;51.286;7.518;2022-07-23T02:41:17;16.00;69.20
10057;DHT22;5068;51.286;7.518;2022-07-23T02:42:51;16.00;69.20
10057;DHT22;5068;51.286;7.518;2022-07-23T02:44:25;16.00;69.30
10057;DHT22;5068;51.286;7.518;2022-07-23T02:46:00;16.00;69.30
10057;DHT22;5068;51.286;7.518;2022-07-23T02:47:35;16.00;69.50
10057;DHT22;5068;51.286;7.518;2022-07-23T02:49:08;16.00;69.60
10057;DHT22;5068;51.286;7.518;2022-07-23T02:50:43;16.00;69.70
10057;DHT22;5068;51.286;7.518;2022-07-23T02:52:19;16.00;69.80
10057;DHT22;5068;51.286;7.518;2022-07-23T02:53:51;15.90;69.60
10057;DHT22;5068;51.286;7.518;2022-07-23T02:55:25;15.90;69.60
10057;DHT22;5068;51.286;7.518;2022-07-23T02:56:59;15.90;70.40
10057;DHT22;5068;51.286;7.518;2022-07-23T02:58:33;15.90;69.60
10057;DHT22;5068;51.286;7.518;2022-07-23T03:00:26;15.90;69.70
10057;DHT22;5068;51.286;7.518;2022-07-23T03:02:00;16.00;69.70
10057;DHT22;5068;51.286;7.518;2022-07-23T03:03:33;15.90;69.20
10057;DHT22;5068;51.286;7.518;2022-07-23T03:05:07;15.90;69.20
10057;DHT22;5068;51.286;7.518;2022-07-23T03:06:43;15.90;69.10
10057;DHT22;5068;51.286;7.518;2022-07-23T03:08:17;15.90;69.10
10057;DHT22;5068;51.286;7.518;2022-07-23T03:09:55;15.90;69.20
10057;DHT22;5068;51.286;7.518;2022-07-23T03:11:31;15.90;69.30
10057;DHT22;5068;51.286;7.518;2022-07-23T03:13:04;15.90;69.10
10057;DHT22;5068;51.286;7.518;2022-07-23T03:14:39;15.80;69.00
10057;DHT22;5068;51.286;7.518;2022-07-23T03:16:13;15.80;69.00
10057;DHT22;5068;51.286;7.518;2022-07-23T03:17:47;15.80;69.00
10057;DHT22;5068;51.286;7.518;2022-07-23T03:19:20;15.80;69.00
10057;DHT22;5068;51.286;7.518;2022-07-23T03:20:55;15.80;69.00
10057;DHT22;5068;51.286;7.518;2022-07-23T03:22:28;15.80;69.00
10057;DHT22;5068;51.286;7.518;2022-07-23T03:24:02;15.80;68.90
10057;DHT22;5068;51.286;7.518;2022-07-23T03:25:36;15.80;69.80
10057;DHT22;5068;51.286;7.518;2022-07-23T03:27:09;15.80;68.90
10057;DHT22;5068;51.286;7.518;2022-07-23T03:28:43;15.80;68.90
10057;DHT22;5068;51.286;7.518;2022-07-23T03:30:18;15.80;68.90
10057;DHT22;5068;51.286;7.518;2022-07-23T03:31:51;15.80;68.90
10057;DHT22;5068;51.286;7.518;2022-07-23T03:33:25;15.80;68.90
10057;DHT22;5068;51.286;7.518;2022-07-23T03:34:59;15.80;69.00
10057;DHT22;5068;51.286;7.518;2022-07-23T03:36:32;15.80;68.90
10057;DHT22;5068;51.286;7.518;2022-07-23T03:38:06;15.70;68.80
10057;DHT22;5068;51.286;7.518;2022-07-23T03:39:40;15.70;68.80
10057;DHT22;5068;51.286;7.518;2022-07-23T03:41:13;15.70;68.90
10057;DHT22;5068;51.286;7.518;2022-07-23T03:42:48;15.80;69.00
10057;DHT22;5068;51.286;7.518;2022-07-23T03:44:22;15.70;68.90
10057;DHT22;5068;51.286;7.518;2022-07-23T03:45:57;15.70;68.90
10057;DHT22;5068;51.286;7.518;2022-07-23T03:47:31;15.70;69.00
10057;DHT22;5068;51.286;7.518;2022-07-23T03:49:03;15.70;68.90
10057;DHT22;5068;51.286;7.518;2022-07-23T03:50:39;15.70;68.90
10057;DHT22;5068;51.286;7.518;2022-07-23T03:52:12;15.70;68.90
10057;DHT22;5068;51.286;7.518;2022-07-23T03:53:46;15.70;68.90
10057;DHT22;5068;51.286;7.518;2022-07-23T03:55:21;15.70;68.90
10057;DHT22;5068;51.286;7.518;2022-07-23T03:56:55;15.70;68.90
10057;DHT22;5068;51.286;7.518;2022-07-23T03:58:28;15.60;68.80
10057;DHT22;5068;51.286;7.518;2022-07-23T04:00:03;15.60;68.80
10057;DHT22;5068;51.286;7.518;2022-07-23T04:01:57;15.60;68.80
10057;DHT22;5068;51.286;7.518;2022-07-23T04:03:30;15.60;68.80
10057;DHT22;5068;51.286;7.518;2022-07-23T04:05:05;15.60;68.90
10057;DHT22;5068;51.286;7.518;2022-07-23T04:06:40;15.60;68.90
10057;DHT22;5068;51.286;7.518;2022-07-23T04:08:13;15.60;68.80
10057;DHT22;5068;51.286;7.518;2022-07-23T04:09:49;15.60;68.80
10057;DHT22;5068;51.286;7.518;2022-07-23T04:11:23;15.60;68.80
10057;DHT22;5068;51.286;7.518;2022-07-23T04:12:56;15.60;68.80
10057;DHT22;5068;51.286;7.518;2022-07-23T04:14:30;15.50;68.70
10057;DHT22;5068;51.286;7.518;2022-07-23T04:16:04;15.60;68.80
10057;DHT22;5068;51.286;7.518;2022-07-23T04:17:40;15.50;68.70
10057;DHT22;5068;51.286;7.518;2022-07-23T04:19:13;15.50;68.70
10057;DHT22;5068;51.286;7.518;2022-07-23T04:20:59;15.50;68.70
10057;DHT22;5068;51.286;7.518;2022-07-23T04:22:32;15.50;68.70
10057;DHT22;5068;51.286;7.518;2022-07-23T04:24:06;15.50;68.70
10057;DHT22;5068;51.286;7.518;2022-07-23T04:25:40;15.40;68.50
10057;DHT22;5068;51.286;7.518;2022-07-23T04:27:14;15.50;68.70
10057;DHT22;5068;51.286;7.518;2022-07-23T04:28:47;15.40;68.50
10057;DHT22;5068;51.286;7.518;2022-07-23T04:30:21;15.40;68.50
10057;DHT22;5068;51.286;7.518;2022-07-23T04:31:55;15.40;68.50
10057;DHT22;5068;51.286;7.518;2022-07-23T04:33:30;15.40;68.50
10057;DHT22;5068;51.286;7.518;2022-07-23T04:35:08;15.40;68.50
10057;DHT22;5068;51.286;7.518;2022-07-23T04:36:42;15.40;68.50
10057;DHT22;5068;51.286;7.518;2022-07-23T04:38:15;15.30;68.40
10057;DHT22;5068;51.286;7.518;2022-07-23T04:39:50;15.30;68.40
10057;DHT22;5068;51.286;7.518;2022-07-23T04:41:23;15.30;68.40
10057;DHT22;5068;51.286;7.518;2022-07-23T04:42:57;15.30;68.50
10057;DHT22;5068;51.286;7.518;2022-07-23T04:44:30;15.30;68.60
10057;DHT22;5068;51.286;7.518;2022-07-23T04:46:04;15.30;68.80
10057;DHT22;5068;51.286;7.518;2022-07-23T04:47:46;15.30;68.80
10057;DHT22;5068;51.286;7.518;2022-07-23T04:49:22;15.20;68.80
10057;DHT22;5068;51.286;7.518;2022-07-23T04:50:55;15.30;69.00
10057;DHT22;5068;51.286;7.518;2022-07-23T04:52:32;15.20;69.00
10057;DHT22;5068;51.286;7.518;2022-07-23T04:54:05;15.30;69.20
10057;DHT22;5068;51.286;7.518;2022-07-23T04:55:39;15.20;69.20
10057;DHT22;5068;51.286;7.518;2022-07-23T04:57:12;15.20;69.20
10057;DHT22;5068;51.286;7.518;2022-07-23T04:58:46;15.20;69.10
10057;DHT22;5068;51.286;7.518;2022-07-23T05:00:19;15.20;69.20
10057;DHT22;5068;51.286;7.518;2022-07-23T05:01:52;15.20;69.20
10057;DHT22;5068;51.286;7.518;2022-07-23T05:03:26;15.20;69.20
10057;DHT22;5068;51.286;7.518;2022-07-23T05:05:01;15.20;69.20
10057;DHT22;5068;51.286;7.518;2022-07-23T05:06:34;15.20;69.00
10057;DHT22;5068;51.286;7.518;2022-07-23T05:08:08;15.20;69.00
10057;DHT22;5068;51.286;7.518;2022-07-23T05:09:43;15.20;69.20
10057;DHT22;5068;51.286;7.518;2022-07-23T05:11:17;15.20;69.10
10057;DHT22;5068;51.286;7.518;2022-07-23T05:12:57;15.20;69.00
10057;DHT22;5068;51.286;7.518;2022-07-23T05:14:31;15.20;69.70
10057;DHT22;5068;51.286;7.518;2022-07-23T05:16:05;15.20;68.60
10057;DHT22;5068;51.286;7.518;2022-07-23T05:17:40;15.20;68.30
10057;DHT22;5068;51.286;7.518;2022-07-23T05:19:18;15.20;68.30
10057;DHT22;5068;51.286;7.518;2022-07-23T05:20:57;15.10;69.00
10057;DHT22;5068;51.286;7.518;2022-07-23T05:22:31;15.20;68.40
10057;DHT22;5068;51.286;7.518;2022-07-23T05:24:06;15.10;68.50
10057;DHT22;5068;51.286;7.518;2022-07-23T05:25:39;15.10;68.80
10057;DHT22;5068;51.286;7.518;2022-07-23T05:27:14;15.10;68.90
10057;DHT22;5068;51.286;7.518;2022-07-23T05:28:47;15.10;68.90
10057;DHT22;5068;51.286;7.518;2022-07-23T05:30:22;15.10;69.00
10057;DHT22;5068;51.286;7.518;2022-07-23T05:32:02;15.10;69.10
10057;DHT22;5068;51.286;7.518;2022-07-23T05:33:37;15.10;69.20
10057;DHT22;5068;51.286;7.518;2022-07-23T05:35:11;15.10;69.00
10057;DHT22;5068;51.286;7.518;2022-07-23T05:36:50;15.10;69.00
10057;DHT22;5068;51.286;7.518;2022-07-23T05:38:25;15.10;69.20
10057;DHT22;5068;51.286;7.518;2022-07-23T05:40:01;15.00;69.00
10057;DHT22;5068;51.286;7.518;2022-07-23T05:41:36;15.10;69.20
10057;DHT22;5068;51.286;7.518;2022-07-23T05:43:09;15.00;69.30
10057;DHT22;5068;51.286;7.518;2022-07-23T05:44:43;15.10;69.60
10057;DHT22;5068;51.286;7.518;2022-07-23T05:46:17;15.00;69.50
10057;DHT22;5068;51.286;7.518;2022-07-23T05:47:55;15.10;69.60
10057;DHT22;5068;51.286;7.518;2022-07-23T05:49:36;15.10;69.70
10057;DHT22;5068;51.286;7.518;2022-07-23T05:51:26;15.00;69.70
10057;DHT22;5068;51.286;7.518;2022-07-23T05:53:01;15.00;69.70
10057;DHT22;5068;51.286;7.518;2022-07-23T05:54:54;15.00;69.70
10057;DHT22;5068;51.286;7.518;2022-07-23T05:56:27;15.10;69.80
10057;DHT22;5068;51.286;7.518;2022-07-23T05:58:01;15.00;69.80
10057;DHT22;5068;51.286;7.518;2022-07-23T05:59:35;15.10;70.00
10057;DHT22;5068;51.286;7.518;2022-07-23T06:01:10;15.10;70.00
10057;DHT22;5068;51.286;7.518;2022-07-23T06:02:51;15.10;70.20
10057;DHT22;5068;51.286;7.518;2022-07-23T06:04:27;15.00;70.20
10057;DHT22;5068;51.286;7.518;2022-07-23T06:06:18;15.10;70.50
10057;DHT22;5068;51.286;7.518;2022-07-23T06:07:52;15.00;70.40
10057;DHT22;5068;51.286;7.518;2022-07-23T06:09:29;15.10;70.50
10057;DHT22;5068;51.286;7.518;2022-07-23T06:11:02;15.10;70.40
10057;DHT22;5068;51.286;7.518;2022-07-23T06:12:36;15.10;70.40
10057;DHT22;5068;51.286;7.518;2022-07-23T06:14:10;15.10;70.60
10057;DHT22;5068;51.286;7.518;2022-07-23T06:15:52;15.10;70.90
10057;DHT22;5068;51.286;7.518;2022-07-23T06:17:26;15.10;71.10
10057;DHT22;5068;51.286;7.518;2022-07-23T06:18:59;15.10;71.30
10057;DHT22;5068;51.286;7.518;2022-07-23T06:20:35;15.10;71.40
10057;DHT22;5068;51.286;7.518;2022-07-23T06:22:08;15.10;71.50
10057;DHT22;5068;51.286;7.518;2022-07-23T06:23:42;15.10;71.70
10057;DHT22;5068;51.286;7.518;2022-07-23T06:25:16;15.20;72.00
10057;DHT22;5068;51.286;7.518;2022-07-23T06:26:51;15.10;72.00
10057;DHT22;5068;51.286;7.518;2022-07-23T06:28:25;15.20;72.20
10057;DHT22;5068;51.286;7.518;2022-07-23T06:29:58;15.10;72.20
10057;DHT22;5068;51.286;7.518;2022-07-23T06:31:31;15.20;72.30
10057;DHT22;5068;51.286;7.518;2022-07-23T06:33:04;15.20;72.50
10057;DHT22;5068;51.286;7.518;2022-07-23T06:34:38;15.20;72.40
10057;DHT22;5068;51.286;7.518;2022-07-23T06:36:19;15.30;72.50
10057;DHT22;5068;51.286;7.518;2022-07-23T06:37:53;15.20;72.10
10057;DHT22;5068;51.286;7.518;2022-07-23T06:39:27;15.20;72.10
10057;DHT22;5068;51.286;7.518;2022-07-23T06:41:04;15.30;72.10
10057;DHT22;5068;51.286;7.518;2022-07-23T06:42:37;15.30;72.10
10057;DHT22;5068;51.286;7.518;2022-07-23T06:44:11;15.30;71.90
10057;DHT22;5068;51.286;7.518;2022-07-23T06:45:47;15.20;71.70
10057;DHT22;5068;51.286;7.518;2022-07-23T06:47:20;15.30;71.50
10057;DHT22;5068;51.286;7.518;2022-07-23T06:48:54;15.30;71.50
10057;DHT22;5068;51.286;7.518;2022-07-23T06:50:28;15.40;71.60
10057;DHT22;5068;51.286;7.518;2022-07-23T06:52:03;15.40;71.70
10057;DHT22;5068;51.286;7.518;2022-07-23T06:53:38;15.40;71.80
10057;DHT22;5068;51.286;7.518;2022-07-23T06:55:13;15.40;71.90
10057;DHT22;5068;51.286;7.518;2022-07-23T06:56:51;15.40;72.00
10057;DHT22;5068;51.286;7.518;2022-07-23T06:58:24;15.40;72.30
10057;DHT22;5068;51.286;7.518;2022-07-23T06:59:57;15.50;72.30
10057;DHT22;5068;51.286;7.518;2022-07-23T07:01:30;15.50;72.40
10057;DHT22;5068;51.286;7.518;2022-07-23T07:03:04;15.50;72.40
10057;DHT22;5068;51.286;7.518;2022-07-23T07:04:38;15.50;72.60
10057;DHT22;5068;51.286;7.518;2022-07-23T07:06:11;15.50;72.70
10057;DHT22;5068;51.286;7.518;2022-07-23T07:07:46;15.60;72.70
10057;DHT22;5068;51.286;7.518;2022-07-23T07:09:19;15.60;72.50
10057;DHT22;5068;51.286;7.518;2022-07-23T07:10:53;15.60;72.30
10057;DHT22;5068;51.286;7.518;2022-07-23T07:12:28;15.70;72.30
10057;DHT22;5068;51.286;7.518;2022-07-23T07:14:01;15.70;72.20
10057;DHT22;5068;51.286;7.518;2022-07-23T07:15:36;15.80;72.30
10057;DHT22;5068;51.286;7.518;2022-07-23T07:17:09;15.80;72.50
10057;DHT22;5068;51.286;7.518;2022-07-23T07:18:43;15.80;72.40
10057;DHT22;5068;51.286;7.518;2022-07-23T07:20:16;15.90;72.40
10057;DHT22;5068;51.286;7.518;2022-07-23T07:21:50;15.90;72.40
10057;DHT22;5068;51.286;7.518;2022-07-23T07:23:23;16.00;72.50
10057;DHT22;5068;51.286;7.518;2022-07-23T07:24:57;16.00;72.10
10057;DHT22;5068;51.286;7.518;2022-07-23T07:26:31;16.10;71.80
10057;DHT22;5068;51.286;7.518;2022-07-23T07:28:06;16.20;71.90
10057;DHT22;5068;51.286;7.518;2022-07-23T07:29:39;16.20;71.90
10057;DHT22;5068;51.286;7.518;2022-07-23T07:31:13;16.30;72.00
10057;DHT22;5068;51.286;7.518;2022-07-23T07:32:47;16.30;71.80
10057;DHT22;5068;51.286;7.518;2022-07-23T07:34:29;16.40;71.40
10057;DHT22;5068;51.286;7.518;2022-07-23T07:36:03;16.50;71.10
10057;DHT22;5068;51.286;7.518;2022-07-23T07:37:37;16.50;70.30
10057;DHT22;5068;51.286;7.518;2022-07-23T07:39:11;16.60;70.60
10057;DHT22;5068;51.286;7.518;2022-07-23T07:40:44;16.60;69.80
10057;DHT22;5068;51.286;7.518;2022-07-23T07:42:18;16.60;69.80
10057;DHT22;5068;51.286;7.518;2022-07-23T07:43:52;16.70;70.00
10057;DHT22;5068;51.286;7.518;2022-07-23T07:45:26;16.70;69.80
10057;DHT22;5068;51.286;7.518;2022-07-23T07:47:00;16.80;69.80
10057;DHT22;5068;51.286;7.518;2022-07-23T07:48:33;16.70;69.80
10057;DHT22;5068;51.286;7.518;2022-07-23T07:50:07;16.80;70.10
10057;DHT22;5068;51.286;7.518;2022-07-23T07:51:43;16.90;69.90
10057;DHT22;5068;51.286;7.518;2022-07-23T07:53:17;16.90;69.70
10057;DHT22;5068;51.286;7.518;2022-07-23T07:54:50;16.90;70.10
10057;DHT22;5068;51.286;7.518;2022-07-23T07:56:24;17.00;70.30
10057;DHT22;5068;51.286;7.518;2022-07-23T07:57:59;17.00;70.30
10057;DHT22;5068;51.286;7.518;2022-07-23T07:59:35;17.10;70.30
10057;DHT22;5068;51.286;7.518;2022-07-23T08:01:08;17.20;69.70
10057;DHT22;5068;51.286;7.518;2022-07-23T08:02:44;17.20;69.20
10057;DHT22;5068;51.286;7.518;2022-07-23T08:04:19;17.30;68.90
10057;DHT22;5068;51.286;7.518;2022-07-23T08:05:53;17.30;68.50
10057;DHT22;5068;51.286;7.518;2022-07-23T08:07:26;17.40;68.00
10057;DHT22;5068;51.286;7.518;2022-07-23T08:09:00;17.40;68.40
10057;DHT22;5068;51.286;7.518;2022-07-23T08:10:33;17.40;67.60
10057;DHT22;5068;51.286;7.518;2022-07-23T08:12:08;17.50;66.90
10057;DHT22;5068;51.286;7.518;2022-07-23T08:13:40;17.50;66.60
10057;DHT22;5068;51.286;7.518;2022-07-23T08:15:18;17.50;66.30
10057;DHT22;5068;51.286;7.518;2022-07-23T08:16:53;17.50;66.20
10057;DHT22;5068;51.286;7.518;2022-07-23T08:18:45;17.50;66.00
10057;DHT22;5068;51.286;7.518;2022-07-23T08:20:20;17.50;65.70
10057;DHT22;5068;51.286;7.518;2022-07-23T08:21:56;17.60;65.40
10057;DHT22;5068;51.286;7.518;2022-07-23T08:23:29;17.60;65.50
10057;DHT22;5068;51.286;7.518;2022-07-23T08:25:03;17.60;65.50
10057;DHT22;5068;51.286;7.518;2022-07-23T08:26:37;17.60;65.40
10057;DHT22;5068;51.286;7.518;2022-07-23T08:28:12;17.60;65.30
10057;DHT22;5068;51.286;7.518;2022-07-23T08:29:47;17.60;65.10
10057;DHT22;5068;51.286;7.518;2022-07-23T08:31:23;17.60;64.80
10057;DHT22;5068;51.286;7.518;2022-07-23T08:32:58;17.70;64.70
10057;DHT22;5068;51.286;7.518;2022-07-23T08:34:33;17.60;64.90
10057;DHT22;5068;51.286;7.518;2022-07-23T08:36:12;17.70;65.30
10057;DHT22;5068;51.286;7.518;2022-07-23T08:37:45;17.70;64.70
10057;DHT22;5068;51.286;7.518;2022-07-23T08:39:18;17.70;65.00
10057;DHT22;5068;51.286;7.518;2022-07-23T08:40:54;17.70;64.70
10057;DHT22;5068;51.286;7.518;2022-07-23T08:42:29;17.80;64.50
10057;DHT22;5068;51.286;7.518;2022-07-23T08:44:03;17.80;64.60
10057;DHT22;5068;51.286;7.518;2022-07-23T08:45:43;17.90;64.00
10057;DHT22;5068;51.286;7.518;2022-07-23T08:47:19;17.90;63.80
10057;DHT22;5068;51.286;7.518;2022-07-23T08:48:52;18.00;64.00
10057;DHT22;5068;51.286;7.518;2022-07-23T08:50:27;18.10;64.60
10057;DHT22;5068;51.286;7.518;2022-07-23T08:52:01;18.10;64.50
10057;DHT22;5068;51.286;7.518;2022-07-23T08:53:35;18.20;63.60
10057;DHT22;5068;51.286;7.518;2022-07-23T08:55:10;18.30;63.70
10057;DHT22;5068;51.286;7.518;2022-07-23T08:56:44;18.40;63.80
10057;DHT22;5068;51.286;7.518;2022-07-23T08:58:18;18.50;64.00
10057;DHT22;5068;51.286;7.518;2022-07-23T08:59:59;18.50;63.10
10057;DHT22;5068;51.286;7.518;2022-07-23T09:01:33;18.60;63.00
10057;DHT22;5068;51.286;7.518;2022-07-23T09:03:15;18.70;62.50
10057;DHT22;5068;51.286;7.518;2022-07-23T09:04:50;18.80;61.90
10057;DHT22;5068;51.286;7.518;2022-07-23T09:06:23;18.90;62.00
10057;DHT22;5068;51.286;7.518;2022-07-23T09:08:09;19.00;61.40
10057;DHT22;5068;51.286;7.518;2022-07-23T09:09:44;19.00;60.40
10057;DHT22;5068;51.286;7.518;2022-07-23T09:11:18;19.10;60.90
10057;DHT22;5068;51.286;7.518;2022-07-23T09:12:52;19.20;60.80
10057;DHT22;5068;51.286;7.518;2022-07-23T09:14:36;19.20;60.80
10057;DHT22;5068;51.286;7.518;2022-07-23T09:16:12;19.30;60.10
10057;DHT22;5068;51.286;7.518;2022-07-23T09:17:47;19.40;60.10
10057;DHT22;5068;51.286;7.518;2022-07-23T09:19:27;19.40;60.20
10057;DHT22;5068;51.286;7.518;2022-07-23T09:21:12;19.50;60.20
10057;DHT22;5068;51.286;7.518;2022-07-23T09:22:56;19.50;60.50
10057;DHT22;5068;51.286;7.518;2022-07-23T09:25:02;19.60;60.30
10057;DHT22;5068;51.286;7.518;2022-07-23T09:26:38;19.70;59.60
10057;DHT22;5068;51.286;7.518;2022-07-23T09:28:14;19.80;59.50
10057;DHT22;5068;51.286;7.518;2022-07-23T09:29:55;19.80;59.00
10057;DHT22;5068;51.286;7.518;2022-07-23T09:31:33;19.90;58.40
10057;DHT22;5068;51.286;7.518;2022-07-23T09:33:15;20.00;58.50
10057;DHT22;5068;51.286;7.518;2022-07-23T09:34:50;20.00;58.20
10057;DHT22;5068;51.286;7.518;2022-07-23T09:36:29;20.10;57.60
10057;DHT22;5068;51.286;7.518;2022-07-23T09:38:03;20.10;56.70
10057;DHT22;5068;51.286;7.518;2022-07-23T09:39:36;20.20;57.10
10057;DHT22;5068;51.286;7.518;2022-07-23T09:41:10;20.20;57.60
10057;DHT22;5068;51.286;7.518;2022-07-23T09:42:55;20.20;57.20
10057;DHT22;5068;51.286;7.518;2022-07-23T09:44:30;20.30;56.40
10057;DHT22;5068;51.286;7.518;2022-07-23T09:46:20;20.30;57.00
10057;DHT22;5068;51.286;7.518;2022-07-23T09:48:10;20.40;56.90
10057;DHT22;5068;51.286;7.518;2022-07-23T09:50:00;20.40;56.60
10057;DHT22;5068;51.286;7.518;2022-07-23T09:51:47;20.50;56.00
10057;DHT22;5068;51.286;7.518;2022-07-23T09:53:24;20.60;56.10
10057;DHT22;5068;51.286;7.518;2022-07-23T09:55:00;20.60;56.60
10057;DHT22;5068;51.286;7.518;2022-07-23T09:56:36;20.70;56.10
10057;DHT22;5068;51.286;7.518;2022-07-23T09:58:10;20.70;55.90
10057;DHT22;5068;51.286;7.518;2022-07-23T09:59:45;20.70;55.50
10057;DHT22;5068;51.286;7.518;2022-07-23T10:01:19;20.80;54.90
10057;DHT22;5068;51.286;7.518;2022-07-23T10:02:53;20.80;54.60
10057;DHT22;5068;51.286;7.518;2022-07-23T10:04:46;20.80;54.90
10057;DHT22;5068;51.286;7.518;2022-07-23T10:06:29;20.80;55.30
10057;DHT22;5068;51.286;7.518;2022-07-23T10:08:22;20.90;55.50
10057;DHT22;5068;51.286;7.518;2022-07-23T10:10:16;21.00;55.10
10057;DHT22;5068;51.286;7.518;2022-07-23T10:12:13;21.00;54.80